sensor_id;sensor_type;location;lat;lon;timestamp;temperature;humidity
66752;SHT31;53663;42.676;23.238;2023-03-01T00:02:11;5.64;85.39
66752;SHT31;53663;42.676;23.238;2023-03-01T00:04:37;5.67;85.22
66752;SHT31;53663;42.676;23.238;2023-03-01T00:07:02;5.51;85.48
66752;SHT31;53663;42.676;23.238;2023-03-01T00:09:28;5.47;85.57
66752;SHT31;53663;42.676;23.238;2023-03-01T00:11:53;5.43;86.01
66752;SHT31;53663;42.676;23.238;2023-03-01T00:14:19;5.39;86.09
66752;SHT31;53663;42.676;23.238;2023-03-01T00:16:45;5.37;85.96
66752;SHT31;53663;42.676;23.238;2023-03-01T00:19:13;5.41;85.74
66752;SHT31;53663;42.676;23.238;2023-03-01T00:21:40;5.39;86.05
66752;SHT31;53663;42.676;23.238;2023-03-01T00:24:06;5.48;85.53
66752;SHT31;53663;42.676;23.238;2023-03-01T00:26:31;5.46;85.21
66752;SHT31;53663;42.676;23.238;2023-03-01T00:28:58;5.36;85.57
66752;SHT31;53663;42.676;23.238;2023-03-01T00:31:26;5.36;85.92
66752;SHT31;53663;42.676;23.238;2023-03-01T00:33:56;5.41;86.07
66752;SHT31;53663;42.676;23.238;2023-03-01T00:36:24;5.37;85.95
66752;SHT31;53663;42.676;23.238;2023-03-01T00:38:50;5.40;85.93
66752;SHT31;53663;42.676;23.238;2023-03-01T00:41:17;5.47;85.51
66752;SHT31;53663;42.676;23.238;2023-03-01T00:43:44;5.51;85.09
66752;SHT31;53663;42.676;23.238;2023-03-01T00:46:18;5.51;85.30
66752;SHT31;53663;42.676;23.238;2023-03-01T00:48:45;5.47;84.93
66752;SHT31;53663;42.676;23.238;2023-03-01T00:53:38;5.51;84.72
66752;SHT31;53663;42.676;23.238;2023-03-01T00:56:05;5.44;84.95
66752;SHT31;53663;42.676;23.238;2023-03-01T00:58:31;5.44;84.71
66752;SHT31;53663;42.676;23.238;2023-03-01T01:00:56;5.40;84.94
66752;SHT31;53663;42.676;23.238;2023-03-01T01:03:22;5.34;85.32
66752;SHT31;53663;42.676;23.238;2023-03-01T01:05:53;5.33;85.52
66752;SHT31;53663;42.676;23.238;2023-03-01T01:08:20;5.29;85.66
66752;SHT31;53663;42.676;23.238;2023-03-01T01:10:46;5.34;85.54
66752;SHT31;53663;42.676;23.238;2023-03-01T01:13:12;5.34;85.38
66752;SHT31;53663;42.676;23.238;2023-03-01T01:15:38;5.36;85.28
66752;SHT31;53663;42.676;23.238;2023-03-01T01:18:04;5.36;85.39
66752;SHT31;53663;42.676;23.238;2023-03-01T01:20:30;5.40;85.09
66752;SHT31;53663;42.676;23.238;2023-03-01T01:22:56;5.39;84.99
66752;SHT31;53663;42.676;23.238;2023-03-01T01:25:22;5.50;84.31
66752;SHT31;53663;42.676;23.238;2023-03-01T01:27:50;5.41;84.49
66752;SHT31;53663;42.676;23.238;2023-03-01T01:30:16;5.44;84.18
66752;SHT31;53663;42.676;23.238;2023-03-01T01:32:42;5.47;84.01
66752;SHT31;53663;42.676;23.238;2023-03-01T01:35:07;5.46;83.85
66752;SHT31;53663;42.676;23.238;2023-03-01T01:37:33;5.41;84.04
66752;SHT31;53663;42.676;23.238;2023-03-01T01:39:59;5.29;84.64
66752;SHT31;53663;42.676;23.238;2023-03-01T01:42:24;5.15;84.79
66752;SHT31;53663;42.676;23.238;2023-03-01T01:45:26;5.12;85.56
66752;SHT31;53663;42.676;23.238;2023-03-01T01:47:55;5.30;84.18
66752;SHT31;53663;42.676;23.238;2023-03-01T01:50:22;5.27;84.34
66752;SHT31;53663;42.676;23.238;2023-03-01T01:52:49;5.27;84.26
66752;SHT31;53663;42.676;23.238;2023-03-01T01:55:18;5.08;84.91
66752;SHT31;53663;42.676;23.238;2023-03-01T01:57:49;5.20;84.15
66752;SHT31;53663;42.676;23.238;2023-03-01T02:00:22;5.20;84.11
66752;SHT31;53663;42.676;23.238;2023-03-01T02:02:52;5.12;84.24
66752;SHT31;53663;42.676;23.238;2023-03-01T02:08:26;5.19;84.10
66752;SHT31;53663;42.676;23.238;2023-03-01T02:10:54;5.27;83.98
66752;SHT31;53663;42.676;23.238;2023-03-01T02:13:21;5.33;83.13
66752;SHT31;53663;42.676;23.238;2023-03-01T02:15:46;5.29;82.98
66752;SHT31;53663;42.676;23.238;2023-03-01T02:18:15;5.27;83.08
66752;SHT31;53663;42.676;23.238;2023-03-01T02:21:13;5.13;83.60
66752;SHT31;53663;42.676;23.238;2023-03-01T02:23:43;5.10;83.56
66752;SHT31;53663;42.676;23.238;2023-03-01T02:28:45;5.22;83.31
66752;SHT31;53663;42.676;23.238;2023-03-01T02:31:17;5.19;83.47
66752;SHT31;53663;42.676;23.238;2023-03-01T02:34:02;5.19;83.07
66752;SHT31;53663;42.676;23.238;2023-03-01T02:36:42;5.13;83.26
66752;SHT31;53663;42.676;23.238;2023-03-01T02:39:13;5.18;83.43
66752;SHT31;53663;42.676;23.238;2023-03-01T02:41:46;5.20;83.04
66752;SHT31;53663;42.676;23.238;2023-03-01T02:44:12;5.13;83.16
66752;SHT31;53663;42.676;23.238;2023-03-01T02:46:47;5.18;83.20
66752;SHT31;53663;42.676;23.238;2023-03-01T02:55:09;5.09;83.33
66752;SHT31;53663;42.676;23.238;2023-03-01T02:57:38;5.12;83.12
66752;SHT31;53663;42.676;23.238;2023-03-01T03:00:09;5.20;82.86
66752;SHT31;53663;42.676;23.238;2023-03-01T03:02:36;5.10;83.67
66752;SHT31;53663;42.676;23.238;2023-03-01T03:05:13;5.18;82.94
66752;SHT31;53663;42.676;23.238;2023-03-01T03:07:41;5.00;83.76
66752;SHT31;53663;42.676;23.238;2023-03-01T03:10:12;4.93;84.37
66752;SHT31;53663;42.676;23.238;2023-03-01T03:12:38;5.06;83.76
66752;SHT31;53663;42.676;23.238;2023-03-01T03:15:06;4.92;84.40
66752;SHT31;53663;42.676;23.238;2023-03-01T03:17:36;4.92;84.36
66752;SHT31;53663;42.676;23.238;2023-03-01T03:20:03;4.85;84.87
66752;SHT31;53663;42.676;23.238;2023-03-01T03:22:30;4.81;85.17
66752;SHT31;53663;42.676;23.238;2023-03-01T03:24:55;4.82;85.34
66752;SHT31;53663;42.676;23.238;2023-03-01T03:27:21;4.82;85.10
66752;SHT31;53663;42.676;23.238;2023-03-01T03:29:46;4.78;85.35
66752;SHT31;53663;42.676;23.238;2023-03-01T03:32:12;4.82;85.07
66752;SHT31;53663;42.676;23.238;2023-03-01T03:34:37;4.86;84.97
66752;SHT31;53663;42.676;23.238;2023-03-01T03:37:03;4.72;85.42
66752;SHT31;53663;42.676;23.238;2023-03-01T03:39:28;4.72;85.72
66752;SHT31;53663;42.676;23.238;2023-03-01T03:41:54;4.83;85.21
66752;SHT31;53663;42.676;23.238;2023-03-01T03:44:20;4.76;85.37
66752;SHT31;53663;42.676;23.238;2023-03-01T03:46:46;4.71;85.65
66752;SHT31;53663;42.676;23.238;2023-03-01T03:49:12;4.71;85.62
66752;SHT31;53663;42.676;23.238;2023-03-01T03:51:37;4.71;85.86
66752;SHT31;53663;42.676;23.238;2023-03-01T03:54:03;4.68;85.82
66752;SHT31;53663;42.676;23.238;2023-03-01T03:56:28;4.68;85.97
66752;SHT31;53663;42.676;23.238;2023-03-01T03:58:54;4.67;85.87
66752;SHT31;53663;42.676;23.238;2023-03-01T04:01:19;4.69;85.81
66752;SHT31;53663;42.676;23.238;2023-03-01T04:03:45;4.65;86.01
66752;SHT31;53663;42.676;23.238;2023-03-01T04:06:13;4.65;86.12
66752;SHT31;53663;42.676;23.238;2023-03-01T04:08:39;4.62;86.01
66752;SHT31;53663;42.676;23.238;2023-03-01T04:11:05;4.62;86.03
66752;SHT31;53663;42.676;23.238;2023-03-01T04:13:49;4.69;85.91
66752;SHT31;53663;42.676;23.238;2023-03-01T04:16:16;4.65;85.86
66752;SHT31;53663;42.676;23.238;2023-03-01T04:18:41;4.67;86.01
66752;SHT31;53663;42.676;23.238;2023-03-01T04:21:07;4.65;85.95
66752;SHT31;53663;42.676;23.238;2023-03-01T04:23:32;4.62;86.00
66752;SHT31;53663;42.676;23.238;2023-03-01T04:25:58;4.72;85.84
66752;SHT31;53663;42.676;23.238;2023-03-01T04:28:39;4.58;86.03
66752;SHT31;53663;42.676;23.238;2023-03-01T04:31:13;4.61;86.00
66752;SHT31;53663;42.676;23.238;2023-03-01T04:33:52;4.62;85.91
66752;SHT31;53663;42.676;23.238;2023-03-01T04:36:20;4.60;86.04
66752;SHT31;53663;42.676;23.238;2023-03-01T04:38:45;4.57;86.11
66752;SHT31;53663;42.676;23.238;2023-03-01T04:41:19;4.54;86.19
66752;SHT31;53663;42.676;23.238;2023-03-01T04:43:45;4.54;86.39
66752;SHT31;53663;42.676;23.238;2023-03-01T04:46:12;4.51;86.47
66752;SHT31;53663;42.676;23.238;2023-03-01T04:48:40;4.58;86.35
66752;SHT31;53663;42.676;23.238;2023-03-01T04:51:06;4.50;86.59
66752;SHT31;53663;42.676;23.238;2023-03-01T04:53:32;4.50;86.58
66752;SHT31;53663;42.676;23.238;2023-03-01T04:55:59;4.50;86.44
66752;SHT31;53663;42.676;23.238;2023-03-01T04:58:26;4.65;86.29
66752;SHT31;53663;42.676;23.238;2023-03-01T05:00:53;4.60;86.23
66752;SHT31;53663;42.676;23.238;2023-03-01T05:03:19;4.58;86.41
66752;SHT31;53663;42.676;23.238;2023-03-01T05:05:47;4.57;86.35
66752;SHT31;53663;42.676;23.238;2023-03-01T05:08:14;4.60;86.25
66752;SHT31;53663;42.676;23.238;2023-03-01T05:10:50;4.58;86.33
66752;SHT31;53663;42.676;23.238;2023-03-01T05:13:18;4.58;86.35
66752;SHT31;53663;42.676;23.238;2023-03-01T05:15:54;4.60;86.34
66752;SHT31;53663;42.676;23.238;2023-03-01T05:18:21;4.52;86.23
66752;SHT31;53663;42.676;23.238;2023-03-01T05:20:50;4.55;86.14
66752;SHT31;53663;42.676;23.238;2023-03-01T05:23:15;4.57;86.00
66752;SHT31;53663;42.676;23.238;2023-03-01T05:25:41;4.58;85.94
66752;SHT31;53663;42.676;23.238;2023-03-01T05:28:10;4.57;85.91
66752;SHT31;53663;42.676;23.238;2023-03-01T05:30:36;4.58;85.91
66752;SHT31;53663;42.676;23.238;2023-03-01T05:33:04;4.65;85.84
66752;SHT31;53663;42.676;23.238;2023-03-01T05:35:32;4.62;85.74
66752;SHT31;53663;42.676;23.238;2023-03-01T05:37:58;4.64;85.88
66752;SHT31;53663;42.676;23.238;2023-03-01T05:40:24;4.57;86.03
66752;SHT31;53663;42.676;23.238;2023-03-01T05:42:53;4.48;86.24
66752;SHT31;53663;42.676;23.238;2023-03-01T05:45:21;4.60;85.83
66752;SHT31;53663;42.676;23.238;2023-03-01T05:47:48;4.61;85.86
66752;SHT31;53663;42.676;23.238;2023-03-01T05:50:25;4.62;85.92
66752;SHT31;53663;42.676;23.238;2023-03-01T05:53:03;4.58;86.01
66752;SHT31;53663;42.676;23.238;2023-03-01T05:55:31;4.72;85.78
66752;SHT31;53663;42.676;23.238;2023-03-01T05:58:01;4.78;85.36
66752;SHT31;53663;42.676;23.238;2023-03-01T06:00:27;4.73;85.40
66752;SHT31;53663;42.676;23.238;2023-03-01T06:02:56;4.75;85.23
66752;SHT31;53663;42.676;23.238;2023-03-01T06:05:22;4.76;85.39
66752;SHT31;53663;42.676;23.238;2023-03-01T06:07:48;4.85;85.20
66752;SHT31;53663;42.676;23.238;2023-03-01T06:10:15;4.91;84.92
66752;SHT31;53663;42.676;23.238;2023-03-01T06:12:42;4.79;85.05
66752;SHT31;53663;42.676;23.238;2023-03-01T06:15:10;4.81;85.28
66752;SHT31;53663;42.676;23.238;2023-03-01T06:17:37;4.78;85.44
66752;SHT31;53663;42.676;23.238;2023-03-01T06:20:05;4.81;85.00
66752;SHT31;53663;42.676;23.238;2023-03-01T06:22:31;4.83;85.12
66752;SHT31;53663;42.676;23.238;2023-03-01T06:24:57;4.78;85.26
66752;SHT31;53663;42.676;23.238;2023-03-01T06:27:22;4.78;85.01
66752;SHT31;53663;42.676;23.238;2023-03-01T06:29:48;4.78;85.25
66752;SHT31;53663;42.676;23.238;2023-03-01T06:32:14;4.85;84.94
66752;SHT31;53663;42.676;23.238;2023-03-01T06:34:39;4.91;84.57
66752;SHT31;53663;42.676;23.238;2023-03-01T06:37:06;4.89;84.84
66752;SHT31;53663;42.676;23.238;2023-03-01T06:39:32;4.85;84.70
66752;SHT31;53663;42.676;23.238;2023-03-01T06:41:58;4.97;84.68
66752;SHT31;53663;42.676;23.238;2023-03-01T06:44:23;5.12;84.69
66752;SHT31;53663;42.676;23.238;2023-03-01T06:46:49;5.08;83.70
66752;SHT31;53663;42.676;23.238;2023-03-01T06:49:15;5.08;83.75
66752;SHT31;53663;42.676;23.238;2023-03-01T06:51:41;5.05;83.93
66752;SHT31;53663;42.676;23.238;2023-03-01T06:54:07;5.02;84.04
66752;SHT31;53663;42.676;23.238;2023-03-01T06:56:33;5.05;83.52
66752;SHT31;53663;42.676;23.238;2023-03-01T06:58:58;5.05;83.64
66752;SHT31;53663;42.676;23.238;2023-03-01T07:01:24;4.97;84.32
66752;SHT31;53663;42.676;23.238;2023-03-01T07:03:49;5.03;84.29
66752;SHT31;53663;42.676;23.238;2023-03-01T07:06:15;5.06;84.10
66752;SHT31;53663;42.676;23.238;2023-03-01T07:08:40;5.24;83.94
66752;SHT31;53663;42.676;23.238;2023-03-01T07:11:06;5.34;83.09
66752;SHT31;53663;42.676;23.238;2023-03-01T07:13:32;5.33;83.28
66752;SHT31;53663;42.676;23.238;2023-03-01T07:15:58;5.33;83.31
66752;SHT31;53663;42.676;23.238;2023-03-01T07:18:23;5.40;83.05
66752;SHT31;53663;42.676;23.238;2023-03-01T07:20:49;5.40;82.28
66752;SHT31;53663;42.676;23.238;2023-03-01T07:23:14;5.51;82.26
66752;SHT31;53663;42.676;23.238;2023-03-01T07:25:40;5.46;82.44
66752;SHT31;53663;42.676;23.238;2023-03-01T07:28:06;5.57;81.94
66752;SHT31;53663;42.676;23.238;2023-03-01T07:30:32;5.54;81.65
66752;SHT31;53663;42.676;23.238;2023-03-01T07:32:58;5.54;81.91
66752;SHT31;53663;42.676;23.238;2023-03-01T07:35:26;5.54;81.52
66752;SHT31;53663;42.676;23.238;2023-03-01T07:37:52;5.36;81.85
66752;SHT31;53663;42.676;23.238;2023-03-01T07:40:18;5.39;81.78
66752;SHT31;53663;42.676;23.238;2023-03-01T07:42:44;5.44;81.74
66752;SHT31;53663;42.676;23.238;2023-03-01T07:45:10;5.50;81.60
66752;SHT31;53663;42.676;23.238;2023-03-01T07:47:35;5.46;81.71
66752;SHT31;53663;42.676;23.238;2023-03-01T07:50:01;5.51;81.58
66752;SHT31;53663;42.676;23.238;2023-03-01T07:52:28;5.51;81.12
66752;SHT31;53663;42.676;23.238;2023-03-01T07:54:53;5.44;81.34
66752;SHT31;53663;42.676;23.238;2023-03-01T07:57:19;5.41;82.05
66752;SHT31;53663;42.676;23.238;2023-03-01T07:59:44;5.52;81.65
66752;SHT31;53663;42.676;23.238;2023-03-01T08:02:10;5.68;80.64
66752;SHT31;53663;42.676;23.238;2023-03-01T08:04:36;5.70;80.51
66752;SHT31;53663;42.676;23.238;2023-03-01T08:07:04;5.75;79.81
66752;SHT31;53663;42.676;23.238;2023-03-01T08:09:30;5.60;80.54
66752;SHT31;53663;42.676;23.238;2023-03-01T08:11:56;5.64;80.56
66752;SHT31;53663;42.676;23.238;2023-03-01T08:14:24;5.72;80.29
66752;SHT31;53663;42.676;23.238;2023-03-01T08:16:50;5.77;80.10
66752;SHT31;53663;42.676;23.238;2023-03-01T08:19:16;5.81;79.52
66752;SHT31;53663;42.676;23.238;2023-03-01T08:21:42;5.81;79.47
66752;SHT31;53663;42.676;23.238;2023-03-01T08:24:08;5.78;79.60
66752;SHT31;53663;42.676;23.238;2023-03-01T08:26:36;5.75;79.99
66752;SHT31;53663;42.676;23.238;2023-03-01T08:29:02;5.61;80.57
66752;SHT31;53663;42.676;23.238;2023-03-01T08:31:37;5.68;80.22
66752;SHT31;53663;42.676;23.238;2023-03-01T08:34:11;5.62;80.61
66752;SHT31;53663;42.676;23.238;2023-03-01T08:36:42;5.52;80.59
66752;SHT31;53663;42.676;23.238;2023-03-01T08:39:10;5.61;80.88
66752;SHT31;53663;42.676;23.238;2023-03-01T08:41:36;5.72;80.16
66752;SHT31;53663;42.676;23.238;2023-03-01T08:44:02;5.78;79.65
66752;SHT31;53663;42.676;23.238;2023-03-01T08:46:30;5.75;80.03
66752;SHT31;53663;42.676;23.238;2023-03-01T08:48:56;5.77;79.94
66752;SHT31;53663;42.676;23.238;2023-03-01T08:51:23;5.74;80.16
66752;SHT31;53663;42.676;23.238;2023-03-01T08:53:48;5.75;80.03
66752;SHT31;53663;42.676;23.238;2023-03-01T08:56:15;5.84;78.76
66752;SHT31;53663;42.676;23.238;2023-03-01T08:58:44;5.87;79.26
66752;SHT31;53663;42.676;23.238;2023-03-01T09:01:12;5.94;78.26
66752;SHT31;53663;42.676;23.238;2023-03-01T09:03:38;5.87;78.74
66752;SHT31;53663;42.676;23.238;2023-03-01T09:06:05;5.89;78.71
66752;SHT31;53663;42.676;23.238;2023-03-01T09:08:34;5.92;78.04
66752;SHT31;53663;42.676;23.238;2023-03-01T09:11:02;5.95;77.89
66752;SHT31;53663;42.676;23.238;2023-03-01T09:13:28;6.12;76.88
66752;SHT31;53663;42.676;23.238;2023-03-01T09:15:57;6.01;77.13
66752;SHT31;53663;42.676;23.238;2023-03-01T09:18:22;6.02;77.24
66752;SHT31;53663;42.676;23.238;2023-03-01T09:20:48;5.97;77.41
66752;SHT31;53663;42.676;23.238;2023-03-01T09:23:13;6.01;77.15
66752;SHT31;53663;42.676;23.238;2023-03-01T09:25:39;6.03;77.31
66752;SHT31;53663;42.676;23.238;2023-03-01T09:28:04;5.97;78.27
66752;SHT31;53663;42.676;23.238;2023-03-01T09:30:30;6.09;77.26
66752;SHT31;53663;42.676;23.238;2023-03-01T09:32:58;6.08;77.18
66752;SHT31;53663;42.676;23.238;2023-03-01T09:35:24;6.10;77.08
66752;SHT31;53663;42.676;23.238;2023-03-01T09:37:49;6.15;78.23
66752;SHT31;53663;42.676;23.238;2023-03-01T09:40:18;6.25;76.81
66752;SHT31;53663;42.676;23.238;2023-03-01T09:43:08;6.25;76.83
66752;SHT31;53663;42.676;23.238;2023-03-01T09:45:41;6.25;77.31
66752;SHT31;53663;42.676;23.238;2023-03-01T09:48:15;6.18;77.54
66752;SHT31;53663;42.676;23.238;2023-03-01T09:50:42;6.20;77.20
66752;SHT31;53663;42.676;23.238;2023-03-01T09:53:26;6.30;76.89
66752;SHT31;53663;42.676;23.238;2023-03-01T09:56:04;6.22;77.46
66752;SHT31;53663;42.676;23.238;2023-03-01T10:01:35;6.32;77.04
66752;SHT31;53663;42.676;23.238;2023-03-01T10:04:39;6.41;76.39
66752;SHT31;53663;42.676;23.238;2023-03-01T10:09:46;6.26;77.18
66752;SHT31;53663;42.676;23.238;2023-03-01T10:20:24;6.51;76.79
66752;SHT31;53663;42.676;23.238;2023-03-01T10:22:50;6.53;76.49
66752;SHT31;53663;42.676;23.238;2023-03-01T10:25:31;6.50;76.46
66752;SHT31;53663;42.676;23.238;2023-03-01T10:28:15;6.51;77.01
66752;SHT31;53663;42.676;23.238;2023-03-01T10:30:42;6.51;76.40
66752;SHT31;53663;42.676;23.238;2023-03-01T10:33:29;6.39;76.95
66752;SHT31;53663;42.676;23.238;2023-03-01T10:35:56;6.43;76.95
66752;SHT31;53663;42.676;23.238;2023-03-01T10:38:21;6.57;76.44
66752;SHT31;53663;42.676;23.238;2023-03-01T10:40:58;6.43;77.35
66752;SHT31;53663;42.676;23.238;2023-03-01T10:43:26;6.48;76.87
66752;SHT31;53663;42.676;23.238;2023-03-01T10:45:53;6.57;77.36
66752;SHT31;53663;42.676;23.238;2023-03-01T10:48:24;6.57;76.44
66752;SHT31;53663;42.676;23.238;2023-03-01T10:51:06;6.60;76.67
66752;SHT31;53663;42.676;23.238;2023-03-01T10:53:38;6.54;76.86
66752;SHT31;53663;42.676;23.238;2023-03-01T10:56:07;6.51;76.79
66752;SHT31;53663;42.676;23.238;2023-03-01T10:58:35;6.54;76.59
66752;SHT31;53663;42.676;23.238;2023-03-01T11:01:08;6.61;76.38
66752;SHT31;53663;42.676;23.238;2023-03-01T11:06:33;6.51;76.97
66752;SHT31;53663;42.676;23.238;2023-03-01T11:09:14;6.51;76.82
66752;SHT31;53663;42.676;23.238;2023-03-01T11:11:41;6.64;75.87
66752;SHT31;53663;42.676;23.238;2023-03-01T11:14:21;6.61;75.94
66752;SHT31;53663;42.676;23.238;2023-03-01T11:16:49;6.44;76.84
66752;SHT31;53663;42.676;23.238;2023-03-01T11:19:23;6.50;76.03
66752;SHT31;53663;42.676;23.238;2023-03-01T11:21:57;6.54;76.47
66752;SHT31;53663;42.676;23.238;2023-03-01T11:24:33;6.54;76.08
66752;SHT31;53663;42.676;23.238;2023-03-01T11:27:02;6.58;75.98
66752;SHT31;53663;42.676;23.238;2023-03-01T11:29:41;6.51;76.51
66752;SHT31;53663;42.676;23.238;2023-03-01T11:32:10;6.48;76.48
66752;SHT31;53663;42.676;23.238;2023-03-01T11:34:51;6.56;76.28
66752;SHT31;53663;42.676;23.238;2023-03-01T11:40:21;6.58;76.50
66752;SHT31;53663;42.676;23.238;2023-03-01T11:45:22;6.53;76.54
66752;SHT31;53663;42.676;23.238;2023-03-01T11:48:01;6.60;76.00
66752;SHT31;53663;42.676;23.238;2023-03-01T11:50:48;6.63;76.43
66752;SHT31;53663;42.676;23.238;2023-03-01T12:01:07;6.53;76.67
66752;SHT31;53663;42.676;23.238;2023-03-01T12:04:19;6.41;77.16
66752;SHT31;53663;42.676;23.238;2023-03-01T12:06:39;6.56;77.06
66752;SHT31;53663;42.676;23.238;2023-03-01T12:11:59;6.88;76.03
66752;SHT31;53663;42.676;23.238;2023-03-01T12:17:24;6.95;75.01
66752;SHT31;53663;42.676;23.238;2023-03-01T12:31:14;7.22;73.99
66752;SHT31;53663;42.676;23.238;2023-03-01T12:34:13;7.11;74.82
66752;SHT31;53663;42.676;23.238;2023-03-01T12:37:14;7.05;74.85
66752;SHT31;53663;42.676;23.238;2023-03-01T12:39:49;7.26;74.30
66752;SHT31;53663;42.676;23.238;2023-03-01T12:42:40;7.30;74.98
66752;SHT31;53663;42.676;23.238;2023-03-01T12:50:42;7.27;74.12
66752;SHT31;53663;42.676;23.238;2023-03-01T12:53:28;7.36;73.74
66752;SHT31;53663;42.676;23.238;2023-03-01T12:55:59;7.42;73.78
66752;SHT31;53663;42.676;23.238;2023-03-01T13:01:30;7.70;72.71
66752;SHT31;53663;42.676;23.238;2023-03-01T13:10:00;7.95;71.64
66752;SHT31;53663;42.676;23.238;2023-03-01T13:13:03;7.85;71.37
66752;SHT31;53663;42.676;23.238;2023-03-01T13:15:34;7.67;71.72
66752;SHT31;53663;42.676;23.238;2023-03-01T13:20:51;7.60;72.68
66752;SHT31;53663;42.676;23.238;2023-03-01T13:34:00;7.56;73.27
66752;SHT31;53663;42.676;23.238;2023-03-01T13:44:32;7.57;71.63
66752;SHT31;53663;42.676;23.238;2023-03-01T13:49:35;7.43;72.80
66752;SHT31;53663;42.676;23.238;2023-03-01T13:52:01;7.43;72.81
66752;SHT31;53663;42.676;23.238;2023-03-01T13:54:32;7.53;73.03
66752;SHT31;53663;42.676;23.238;2023-03-01T13:56:59;7.59;72.38
66752;SHT31;53663;42.676;23.238;2023-03-01T13:59:26;7.53;73.65
66752;SHT31;53663;42.676;23.238;2023-03-01T14:01:57;7.60;72.99
66752;SHT31;53663;42.676;23.238;2023-03-01T14:04:30;7.52;73.16
66752;SHT31;53663;42.676;23.238;2023-03-01T14:09:38;7.40;73.91
66752;SHT31;53663;42.676;23.238;2023-03-01T14:14:58;7.47;73.98
66752;SHT31;53663;42.676;23.238;2023-03-01T14:20:14;7.50;74.11
66752;SHT31;53663;42.676;23.238;2023-03-01T14:22:42;7.60;73.33
66752;SHT31;53663;42.676;23.238;2023-03-01T14:28:15;7.46;73.98
66752;SHT31;53663;42.676;23.238;2023-03-01T14:36:11;7.47;74.07
66752;SHT31;53663;42.676;23.238;2023-03-01T14:38:39;7.39;74.10
66752;SHT31;53663;42.676;23.238;2023-03-01T14:41:20;7.37;74.11
66752;SHT31;53663;42.676;23.238;2023-03-01T14:43:52;7.42;73.99
66752;SHT31;53663;42.676;23.238;2023-03-01T14:46:39;7.45;74.07
66752;SHT31;53663;42.676;23.238;2023-03-01T14:49:21;7.35;74.53
66752;SHT31;53663;42.676;23.238;2023-03-01T14:52:03;7.32;74.98
66752;SHT31;53663;42.676;23.238;2023-03-01T14:54:31;7.47;74.42
66752;SHT31;53663;42.676;23.238;2023-03-01T14:57:01;7.32;74.65
66752;SHT31;53663;42.676;23.238;2023-03-01T14:59:27;7.29;74.46
66752;SHT31;53663;42.676;23.238;2023-03-01T15:01:55;7.11;75.46
66752;SHT31;53663;42.676;23.238;2023-03-01T15:04:23;7.18;75.33
66752;SHT31;53663;42.676;23.238;2023-03-01T15:06:54;7.06;75.74
66752;SHT31;53663;42.676;23.238;2023-03-01T15:09:20;7.02;76.13
66752;SHT31;53663;42.676;23.238;2023-03-01T15:11:47;6.98;76.93
66752;SHT31;53663;42.676;23.238;2023-03-01T15:14:38;6.98;76.97
66752;SHT31;53663;42.676;23.238;2023-03-01T15:17:20;6.88;77.49
66752;SHT31;53663;42.676;23.238;2023-03-01T15:19:46;6.87;77.56
66752;SHT31;53663;42.676;23.238;2023-03-01T15:22:15;6.74;78.09
66752;SHT31;53663;42.676;23.238;2023-03-01T15:24:46;6.77;77.96
66752;SHT31;53663;42.676;23.238;2023-03-01T15:27:16;6.77;77.81
66752;SHT31;53663;42.676;23.238;2023-03-01T15:29:52;6.71;78.30
66752;SHT31;53663;42.676;23.238;2023-03-01T15:32:38;6.64;78.86
66752;SHT31;53663;42.676;23.238;2023-03-01T15:35:37;6.57;78.96
66752;SHT31;53663;42.676;23.238;2023-03-01T15:38:04;6.57;79.04
66752;SHT31;53663;42.676;23.238;2023-03-01T15:40:49;6.43;79.13
66752;SHT31;53663;42.676;23.238;2023-03-01T15:43:42;6.50;78.41
66752;SHT31;53663;42.676;23.238;2023-03-01T15:46:16;6.56;78.25
66752;SHT31;53663;42.676;23.238;2023-03-01T15:48:47;6.47;78.79
66752;SHT31;53663;42.676;23.238;2023-03-01T15:51:15;6.34;78.95
66752;SHT31;53663;42.676;23.238;2023-03-01T15:53:51;6.33;78.93
66752;SHT31;53663;42.676;23.238;2023-03-01T15:56:18;6.37;78.83
66752;SHT31;53663;42.676;23.238;2023-03-01T15:58:44;6.34;78.36
66752;SHT31;53663;42.676;23.238;2023-03-01T16:01:12;6.23;79.03
66752;SHT31;53663;42.676;23.238;2023-03-01T16:03:39;6.16;79.12
66752;SHT31;53663;42.676;23.238;2023-03-01T16:06:04;6.18;79.08
66752;SHT31;53663;42.676;23.238;2023-03-01T16:08:30;6.19;80.06
66752;SHT31;53663;42.676;23.238;2023-03-01T16:10:55;6.10;79.74
66752;SHT31;53663;42.676;23.238;2023-03-01T16:13:21;6.06;79.72
66752;SHT31;53663;42.676;23.238;2023-03-01T16:15:46;5.99;79.73
66752;SHT31;53663;42.676;23.238;2023-03-01T16:18:12;6.09;79.44
66752;SHT31;53663;42.676;23.238;2023-03-01T16:20:38;6.08;79.64
66752;SHT31;53663;42.676;23.238;2023-03-01T16:23:07;6.16;79.06
66752;SHT31;53663;42.676;23.238;2023-03-01T16:25:34;6.05;79.70
66752;SHT31;53663;42.676;23.238;2023-03-01T16:28:00;6.08;79.35
66752;SHT31;53663;42.676;23.238;2023-03-01T16:30:26;6.03;79.60
66752;SHT31;53663;42.676;23.238;2023-03-01T16:32:52;6.05;79.33
66752;SHT31;53663;42.676;23.238;2023-03-01T16:35:20;6.03;79.73
66752;SHT31;53663;42.676;23.238;2023-03-01T16:37:46;5.97;79.92
66752;SHT31;53663;42.676;23.238;2023-03-01T16:40:26;5.91;80.25
66752;SHT31;53663;42.676;23.238;2023-03-01T16:42:53;5.82;80.26
66752;SHT31;53663;42.676;23.238;2023-03-01T16:45:20;5.78;80.52
66752;SHT31;53663;42.676;23.238;2023-03-01T16:47:46;5.78;80.46
66752;SHT31;53663;42.676;23.238;2023-03-01T16:50:11;5.81;80.38
66752;SHT31;53663;42.676;23.238;2023-03-01T16:52:37;5.89;79.82
66752;SHT31;53663;42.676;23.238;2023-03-01T16:55:05;5.92;79.78
66752;SHT31;53663;42.676;23.238;2023-03-01T16:57:33;5.84;80.13
66752;SHT31;53663;42.676;23.238;2023-03-01T16:59:59;5.67;80.79
66752;SHT31;53663;42.676;23.238;2023-03-01T17:02:24;5.64;80.99
66752;SHT31;53663;42.676;23.238;2023-03-01T17:04:52;5.75;80.47
66752;SHT31;53663;42.676;23.238;2023-03-01T17:07:18;5.78;80.49
66752;SHT31;53663;42.676;23.238;2023-03-01T17:09:44;5.75;80.69
66752;SHT31;53663;42.676;23.238;2023-03-01T17:12:12;5.72;80.79
66752;SHT31;53663;42.676;23.238;2023-03-01T17:14:38;5.60;81.13
66752;SHT31;53663;42.676;23.238;2023-03-01T17:17:04;5.70;81.10
66752;SHT31;53663;42.676;23.238;2023-03-01T17:19:29;5.61;81.29
66752;SHT31;53663;42.676;23.238;2023-03-01T17:21:56;5.67;81.16
66752;SHT31;53663;42.676;23.238;2023-03-01T17:24:22;5.50;81.50
66752;SHT31;53663;42.676;23.238;2023-03-01T17:26:47;5.55;81.45
66752;SHT31;53663;42.676;23.238;2023-03-01T17:29:13;5.64;81.23
66752;SHT31;53663;42.676;23.238;2023-03-01T17:31:39;5.61;81.10
66752;SHT31;53663;42.676;23.238;2023-03-01T17:34:04;5.68;80.99
66752;SHT31;53663;42.676;23.238;2023-03-01T17:36:30;5.64;81.02
66752;SHT31;53663;42.676;23.238;2023-03-01T17:38:57;5.55;81.62
66752;SHT31;53663;42.676;23.238;2023-03-01T17:41:23;5.65;81.19